Time;durP1;ratioP1;P1;durP2;ratioP2;P2;SDS_P1;SDS_P2;PMS_P1;PMS_P2;Temp;Humidity;BMP_temperature;BMP_pressure;BME280_temperature;BME280_humidity;BME280_pressure;Samples;Min_cycle;Max_cycle;Signal;HPM_P1;HPM_P2
2021/09/10 00:02:22;;;;;;;8.20;4.20;;;;;;;19.11;59.58;99768.75;5030878;28;20026;-76
2021/09/10 00:04:47;;;;;;;6.57;3.97;;;;;;;19.18;59.36;99774.84;5031167;28;20029;-75
2021/09/10 00:07:13;;;;;;;5.82;3.85;;;;;;;19.44;59.28;99805.78;5031247;28;20028;-76
2021/09/10 00:09:38;;;;;;;5.28;3.42;;;;;;;19.45;59.22;99806.59;5034797;28;20029;-75
2021/09/10 00:12:04;;;;;;;9.55;4.45;;;;;;;19.31;59.23;99800.59;5033820;28;20473;-75
2021/09/10 00:14:29;;;;;;;6.45;4.03;;;;;;;18.98;59.23;99747.53;5034945;28;20045;-75
2021/09/10 00:16:55;;;;;;;4.20;3.35;;;;;;;19.10;59.32;99774.34;5034886;28;20029;-75
2021/09/10 00:19:20;;;;;;;6.30;3.50;;;;;;;19.25;59.23;99804.19;5035011;28;20018;-75
2021/09/10 00:21:46;;;;;;;5.70;3.85;;;;;;;19.10;59.10;99777.84;5035076;28;20036;-75
2021/09/10 00:24:12;;;;;;;4.25;3.28;;;;;;;18.93;59.08;99752.75;5035029;28;20033;-75
2021/09/10 00:26:37;;;;;;;4.43;3.33;;;;;;;19.24;59.18;99811.41;5034772;28;20498;-75
2021/09/10 00:29:03;;;;;;;7.70;3.22;;;;;;;18.93;59.22;99766.97;5034582;28;20112;-75
2021/09/10 00:31:28;;;;;;;7.07;3.85;;;;;;;19.25;59.26;99817.56;5034849;28;20068;-75
2021/09/10 00:33:54;;;;;;;5.97;3.45;;;;;;;19.20;59.10;99815.56;5034999;28;20494;-76
2021/09/10 00:36:19;;;;;;;6.53;3.10;;;;;;;19.30;59.04;99821.19;5033461;28;20086;-75
2021/09/10 00:38:44;;;;;;;8.05;4.15;;;;;;;19.09;58.94;99780.75;5034716;28;20040;-75
2021/09/10 00:41:10;;;;;;;4.85;3.78;;;;;;;18.96;58.79;99758.47;5034512;28;20021;-76
2021/09/10 00:43:36;;;;;;;5.88;3.42;;;;;;;19.36;58.72;99817.63;5034271;28;20034;-76
2021/09/10 00:46:01;;;;;;;6.07;3.83;;;;;;;19.09;58.75;99780.75;5034543;28;20037;-76
2021/09/10 00:48:28;;;;;;;6.43;3.72;;;;;;;19.36;58.84;99825.66;5034490;28;20486;-76
2021/09/10 00:50:54;;;;;;;3.80;3.40;;;;;;;19.33;58.88;99830.66;5034567;28;20052;-76
2021/09/10 00:53:19;;;;;;;5.65;3.50;;;;;;;18.94;58.76;99768.59;5034573;28;20040;-76
2021/09/10 00:55:45;;;;;;;6.68;3.92;;;;;;;19.29;58.91;99824.91;5034481;28;20037;-76
2021/09/10 00:58:11;;;;;;;3.72;2.92;;;;;;;19.32;58.79;99829.84;5034311;28;20491;-76
2021/09/10 01:00:38;;;;;;;4.60;3.30;;;;;;;19.33;58.78;99825.31;5034180;28;20030;-76
2021/09/10 01:03:04;;;;;;;4.50;3.55;;;;;;;19.23;58.73;99806.28;5034083;28;20099;-75
2021/09/10 01:05:29;;;;;;;7.03;3.13;;;;;;;19.25;58.70;99812.22;5034127;28;20416;-76
2021/09/10 01:07:57;;;;;;;7.80;3.78;;;;;;;19.41;58.57;99827.66;5032727;28;20030;-75
2021/09/10 01:10:23;;;;;;;6.05;3.00;;;;;;;19.17;58.61;99789.25;5032879;28;20086;-76
2021/09/10 01:12:50;;;;;;;4.53;3.60;;;;;;;19.46;58.56;99829.66;5033967;28;20512;-75
2021/09/10 01:15:16;;;;;;;3.92;3.08;;;;;;;19.44;58.58;99832.56;5034052;28;20124;-76
2021/09/10 01:17:42;;;;;;;5.10;3.03;;;;;;;19.07;58.67;99777.47;5034105;28;20053;-76
2021/09/10 01:20:08;;;;;;;6.63;3.45;;;;;;;18.90;58.71;99753.22;5033877;28;20075;-75
2021/09/10 01:22:36;;;;;;;5.20;3.58;;;;;;;18.91;58.70;99749.50;5032494;28;20021;-77
2021/09/10 01:25:10;;;;;;;6.50;3.00;;;;;;;19.39;58.68;99818.22;5033885;28;20083;-79
2021/09/10 01:27:36;;;;;;;5.72;3.35;;;;;;;19.34;58.67;99822.41;5033628;28;20029;-80
2021/09/10 01:30:02;;;;;;;6.78;3.35;;;;;;;19.36;58.77;99820.31;5033712;28;20104;-80
2021/09/10 01:32:27;;;;;;;5.47;3.42;;;;;;;18.98;58.95;99777.78;5032422;28;20022;-80
2021/09/10 01:34:53;;;;;;;5.97;3.20;;;;;;;18.94;58.82;99767.78;5033557;28;20033;-79
2021/09/10 01:37:18;;;;;;;6.10;3.47;;;;;;;19.30;58.90;99828.41;5033465;28;20117;-79
2021/09/10 01:39:43;;;;;;;4.00;3.60;;;;;;;19.23;58.89;99815.13;5033561;28;20025;-80
2021/09/10 01:42:09;;;;;;;4.22;3.10;;;;;;;19.30;58.83;99826.56;5033547;28;20022;-80
2021/09/10 01:44:34;;;;;;;4.75;3.45;;;;;;;18.71;58.94;99739.06;5033734;28;20479;-80
2021/09/10 01:47:00;;;;;;;6.63;3.92;;;;;;;19.34;58.66;99835.78;5033066;28;20418;-80
2021/09/10 01:49:26;;;;;;;3.90;2.80;;;;;;;18.96;58.54;99771.84;5034375;28;20079;-79
2021/09/10 01:51:51;;;;;;;4.18;2.70;;;;;;;19.20;58.61;99804.06;5032157;28;20029;-80
2021/09/10 01:54:17;;;;;;;5.90;3.10;;;;;;;19.38;58.68;99821.94;5032906;28;20032;-80
2021/09/10 01:56:42;;;;;;;4.07;2.83;;;;;;;19.29;58.63;99813.38;5031966;28;20033;-80
2021/09/10 01:59:07;;;;;;;4.00;3.55;;;;;;;19.39;58.66;99823.56;5033284;28;20017;-80
2021/09/10 02:01:34;;;;;;;5.68;3.40;;;;;;;18.96;58.71;99760.34;5033019;28;20026;-80
2021/09/10 02:04:00;;;;;;;6.60;3.50;;;;;;;19.17;58.53;99791.13;5032942;28;20072;-80
2021/09/10 02:06:25;;;;;;;4.18;3.42;;;;;;;19.36;58.68;99822.19;5033272;28;20056;-81
2021/09/10 02:08:51;;;;;;;5.93;3.38;;;;;;;19.36;58.61;99816.81;5032989;28;20563;-80
2021/09/10 02:11:16;;;;;;;4.35;3.60;;;;;;;19.21;58.54;99792.31;5032838;28;20021;-80
2021/09/10 02:13:42;;;;;;;4.80;3.47;;;;;;;18.82;58.57;99722.25;5032713;28;20046;-81
2021/09/10 02:16:09;;;;;;;5.20;3.30;;;;;;;19.32;58.74;99816.47;5032703;28;20128;-80
2021/09/10 02:18:35;;;;;;;4.15;3.42;;;;;;;18.89;58.58;99739.03;5032710;28;20075;-81
2021/09/10 02:21:01;;;;;;;8.77;3.85;;;;;;;19.20;58.67;99796.84;5031530;28;20025;-81
2021/09/10 02:23:27;;;;;;;6.03;3.78;;;;;;;18.91;58.77;99757.53;5032722;28;20029;-76
2021/09/10 02:25:52;;;;;;;9.35;3.78;;;;;;;19.25;58.65;99812.22;5032727;28;20022;-75
2021/09/10 02:28:17;;;;;;;7.70;4.00;;;;;;;19.03;58.80;99775.25;5032691;28;20052;-75
2021/09/10 02:30:43;;;;;;;6.57;3.47;;;;;;;19.20;58.86;99804.06;5032170;28;20037;-76
2021/09/10 02:33:08;;;;;;;6.63;4.75;;;;;;;19.09;59.04;99792.25;5032705;28;20025;-75
2021/09/10 02:35:34;;;;;;;5.72;3.90;;;;;;;18.75;59.13;99742.91;5032616;28;20410;-75
2021/09/10 02:37:59;;;;;;;6.05;4.18;;;;;;;19.09;59.31;99799.47;5032375;28;20040;-75
2021/09/10 02:40:25;;;;;;;5.35;3.40;;;;;;;18.81;59.32;99754.56;5032469;28;20025;-75
2021/09/10 02:42:50;;;;;;;4.85;3.83;;;;;;;18.71;59.27;99755.94;5032287;28;20448;-76
2021/09/10 02:45:15;;;;;;;5.97;3.70;;;;;;;19.02;59.32;99797.69;5032256;28;20025;-75
2021/09/10 02:47:41;;;;;;;5.72;4.05;;;;;;;19.00;59.46;99799.78;5032239;28;20028;-75
2021/09/10 02:50:07;;;;;;;6.57;3.85;;;;;;;18.56;59.42;99733.25;5032274;28;20079;-75
2021/09/10 02:52:34;;;;;;;4.97;3.65;;;;;;;19.04;59.26;99794.81;5032348;28;20092;-75
2021/09/10 02:54:59;;;;;;;5.85;3.85;;;;;;;18.73;59.30;99756.53;5032101;28;20026;-75
2021/09/10 02:57:25;;;;;;;9.88;4.20;;;;;;;18.78;59.37;99774.56;5030924;28;20099;-76
2021/09/10 02:59:50;;;;;;;6.20;3.92;;;;;;;18.23;59.48;99686.34;5032223;28;20116;-76
2021/09/10 03:02:16;;;;;;;5.93;3.50;;;;;;;18.66;59.43;99758.47;5031803;28;20456;-75
2021/09/10 03:04:45;;;;;;;5.80;3.70;;;;;;;18.77;59.67;99783.63;5031831;28;20025;-76
2021/09/10 03:07:11;;;;;;;6.93;3.92;;;;;;;18.78;59.63;99795.97;5031568;28;20071;-76
2021/09/10 03:09:36;;;;;;;7.22;3.80;;;;;;;18.73;59.69;99795.81;5031715;28;20486;-75
2021/09/10 03:12:02;;;;;;;7.70;4.15;;;;;;;18.66;59.62;99792.41;5031752;28;20030;-75
2021/09/10 03:14:30;;;;;;;6.43;3.90;;;;;;;18.60;59.61;99790.63;5031778;28;20054;-75
2021/09/10 03:16:56;;;;;;;5.28;3.55;;;;;;;18.50;59.62;99780.41;5030240;28;20117;-75
2021/09/10 03:19:21;;;;;;;5.30;3.83;;;;;;;17.60;59.47;99646.50;5030267;28;20053;-75
2021/09/10 03:21:46;;;;;;;4.80;3.42;;;;;;;18.38;59.75;99777.66;5031506;28;20017;-75
2021/09/10 03:24:12;;;;;;;5.50;3.35;;;;;;;18.23;59.57;99755.03;5031448;28;20018;-76
2021/09/10 03:26:37;;;;;;;5.50;3.70;;;;;;;18.14;59.49;99749.16;5031644;28;20105;-75
2021/09/10 03:29:03;;;;;;;5.97;3.58;;;;;;;18.34;59.58;99784.50;5031579;28;20022;-75
2021/09/10 03:31:28;;;;;;;5.78;3.63;;;;;;;18.29;59.58;99784.34;5031603;28;20414;-76
2021/09/10 03:33:53;;;;;;;4.72;3.40;;;;;;;18.10;59.40;99772.00;5031486;28;20017;-75
2021/09/10 03:36:19;;;;;;;6.47;4.18;;;;;;;17.93;59.58;99753.06;5031410;28;20109;-76
2021/09/10 03:38:44;;;;;;;6.60;3.65;;;;;;;18.11;59.66;99792.34;5031394;28;20022;-75
2021/09/10 03:41:09;;;;;;;4.22;3.60;;;;;;;17.89;59.91;99767.09;5031499;28;20010;-75
2021/09/10 03:43:36;;;;;;;7.43;3.55;;;;;;;17.82;59.79;99759.09;5030593;28;20024;-75
2021/09/10 03:46:01;;;;;;;4.90;3.78;;;;;;;17.94;59.57;99780.59;5031513;28;20151;-75
2021/09/10 03:48:26;;;;;;;7.13;3.88;;;;;;;18.00;59.87;99787.72;5032005;28;20088;-75
2021/09/10 03:50:52;;;;;;;5.95;3.53;;;;;;;17.57;59.91;99734.25;5031296;28;20021;-75
2021/09/10 03:53:17;;;;;;;7.30;4.03;;;;;;;17.82;59.85;99766.31;5031052;28;20033;-75
2021/09/10 03:55:43;;;;;;;7.95;3.92;;;;;;;17.65;59.82;99744.66;5031240;28;20100;-75
2021/09/10 03:58:08;;;;;;;7.10;3.90;;;;;;;17.82;59.98;99775.13;5031236;28;20459;-75
2021/09/10 04:00:33;;;;;;;9.85;3.85;;;;;;;17.63;59.56;99750.22;5031309;28;20017;-75
2021/09/10 04:03:03;;;;;;;5.57;3.97;;;;;;;17.68;59.75;99777.09;5031351;28;20026;-75
2021/09/10 04:05:28;;;;;;;4.15;3.75;;;;;;;17.84;59.58;99788.28;5029837;28;20029;-76
2021/09/10 04:07:54;;;;;;;9.57;4.38;;;;;;;17.88;59.78;99801.00;5031016;28;20552;-76
2021/09/10 04:10:19;;;;;;;11.13;4.30;;;;;;;17.87;59.64;99796.69;5031124;28;20049;-75
2021/09/10 04:12:44;;;;;;;6.78;3.47;;;;;;;17.58;59.73;99741.22;5031032;28;20461;-75
2021/09/10 04:15:10;;;;;;;6.10;4.40;;;;;;;17.91;59.68;99797.88;5031010;28;20056;-75
2021/09/10 04:17:35;;;;;;;5.28;3.90;;;;;;;17.87;59.65;99794.03;5030995;28;20036;-74
2021/09/10 04:20:01;;;;;;;5.68;4.15;;;;;;;17.78;59.65;99779.28;5030848;28;20482;-76
2021/09/10 04:22:26;;;;;;;8.82;4.38;;;;;;;17.46;59.49;99733.09;5030656;28;20033;-75
2021/09/10 04:24:52;;;;;;;8.25;4.05;;;;;;;17.92;59.51;99809.38;5030765;28;20033;-80
2021/09/10 04:27:17;;;;;;;9.32;4.07;;;;;;;17.85;59.41;99790.75;5030930;28;20028;-81
2021/09/10 04:29:42;;;;;;;9.13;4.10;;;;;;;17.79;59.47;99778.25;5029536;28;20026;-81
2021/09/10 04:32:08;;;;;;;5.05;3.47;;;;;;;17.83;59.56;99794.66;5029786;28;20028;-81
2021/09/10 04:34:33;;;;;;;6.57;4.03;;;;;;;17.71;59.46;99770.50;5029713;28;20025;-80
2021/09/10 04:36:59;;;;;;;7.65;4.85;;;;;;;17.72;59.28;99770.28;5030762;28;20113;-80
2021/09/10 04:39:24;;;;;;;9.60;4.55;;;;;;;17.71;59.14;99760.63;5031034;28;20032;-81
2021/09/10 04:41:49;;;;;;;5.45;3.80;;;;;;;17.65;59.15;99741.97;5030820;28;20029;-81
2021/09/10 04:44:15;;;;;;;12.93;4.50;;;;;;;18.13;58.94;99800.97;5030818;28;20025;-80
2021/09/10 04:46:41;;;;;;;6.43;4.18;;;;;;;18.11;58.92;99813.72;5030817;28;20025;-81
2021/09/10 04:49:06;;;;;;;6.68;4.10;;;;;;;17.69;59.03;99728.00;5030772;28;20022;-80
2021/09/10 04:51:32;;;;;;;6.38;3.80;;;;;;;18.20;58.84;99792.88;5030792;28;20103;-80
2021/09/10 04:53:57;;;;;;;4.85;3.88;;;;;;;18.08;58.71;99784.78;5031409;28;20018;-80
2021/09/10 04:56:23;;;;;;;9.13;4.43;;;;;;;18.23;58.63;99806.63;5034445;28;20091;-81
2021/09/10 04:58:49;;;;;;;5.85;3.75;;;;;;;18.25;58.76;99820.56;5034359;28;20571;-81
2021/09/10 05:01:14;;;;;;;9.00;3.97;;;;;;;18.02;58.81;99780.31;5034326;28;20104;-80
2021/09/10 05:03:40;;;;;;;11.85;4.80;;;;;;;18.25;58.52;99815.22;5034188;28;20022;-81
2021/09/10 05:06:06;;;;;;;11.73;4.38;;;;;;;17.81;58.57;99744.13;5034146;28;20024;-81
2021/09/10 05:08:31;;;;;;;7.65;4.10;;;;;;;18.15;58.60;99784.72;5033747;28;20021;-80
2021/09/10 05:10:57;;;;;;;9.15;4.35;;;;;;;17.96;58.47;99747.28;5033935;28;20522;-80
2021/09/10 05:13:22;;;;;;;10.32;4.85;;;;;;;18.38;58.47;99812.41;5033851;28;20053;-80
2021/09/10 05:15:47;;;;;;;8.35;4.20;;;;;;;18.00;58.31;99734.31;5033626;28;20036;-81
2021/09/10 05:18:13;;;;;;;9.77;4.68;;;;;;;18.31;58.19;99787.63;5033714;28;20026;-81
2021/09/10 05:20:40;;;;;;;8.23;4.10;;;;;;;18.39;58.44;99818.59;5033530;28;20105;-80
2021/09/10 05:23:05;;;;;;;8.45;4.80;;;;;;;18.06;58.40;99752.94;5033852;28;20026;-75
2021/09/10 05:25:31;;;;;;;6.85;4.65;;;;;;;18.24;58.47;99786.06;5033453;28;20022;-76
2021/09/10 05:27:56;;;;;;;8.57;4.85;;;;;;;18.36;58.54;99806.47;5033406;28;20014;-75
2021/09/10 05:30:21;;;;;;;8.15;4.97;;;;;;;18.24;58.58;99780.72;5033846;28;20072;-75
2021/09/10 05:32:47;;;;;;;11.82;5.47;;;;;;;18.41;58.60;99805.81;5033734;28;20088;-75
2021/09/10 05:35:14;;;;;;;9.65;4.93;;;;;;;18.51;58.52;99818.66;5033578;28;20033;-75
2021/09/10 05:37:39;;;;;;;7.22;5.35;;;;;;;18.12;58.50;99745.06;5033453;28;20383;-75
2021/09/10 05:40:05;;;;;;;13.50;4.45;;;;;;;18.54;58.60;99808.34;5033066;28;20041;-75
2021/09/10 05:42:31;;;;;;;7.60;4.15;;;;;;;18.16;58.17;99739.06;5033280;28;20487;-75
2021/09/10 05:44:56;;;;;;;8.35;4.20;;;;;;;18.24;57.97;99737.94;5032769;28;20033;-75
2021/09/10 05:47:21;;;;;;;10.00;4.82;;;;;;;18.72;58.17;99815.59;5053273;28;20102;-75
2021/09/10 05:49:47;;;;;;;7.95;4.13;;;;;;;18.45;58.16;99758.06;5040102;28;20113;-75
2021/09/10 05:52:12;;;;;;;5.97;3.92;;;;;;;18.78;58.10;99811.19;5033233;28;20424;-75
2021/09/10 05:54:37;;;;;;;6.38;4.30;;;;;;;18.55;58.00;99766.38;5045114;28;20045;-76
2021/09/10 05:57:06;;;;;;;9.75;4.78;;;;;;;18.63;57.81;99771.47;5035647;28;20021;-75
2021/09/10 05:59:31;;;;;;;11.88;5.30;;;;;;;18.56;58.06;99768.81;5042525;28;20025;-75
2021/09/10 06:01:57;;;;;;;9.23;4.32;;;;;;;18.95;58.00;99822.91;5052789;28;20027;-74
2021/09/10 06:04:22;;;;;;;7.13;4.50;;;;;;;18.99;57.93;99814.22;5045999;28;20052;-75
2021/09/10 06:06:48;;;;;;;6.72;4.75;;;;;;;18.76;57.78;99765.13;5071893;28;20044;-75
2021/09/10 06:09:13;;;;;;;6.82;4.07;;;;;;;18.75;57.71;99764.31;5072862;28;20107;-75
2021/09/10 06:11:38;;;;;;;8.73;4.38;;;;;;;18.83;57.84;99758.66;5072484;28;20508;-75
2021/09/10 06:14:04;;;;;;;9.30;4.40;;;;;;;18.99;57.78;99775.94;5072549;28;20090;-75
2021/09/10 06:16:29;;;;;;;5.63;3.70;;;;;;;19.34;57.67;99826.94;5055510;28;20013;-75
2021/09/10 06:18:55;;;;;;;9.98;4.53;;;;;;;19.36;57.63;99824.84;5038548;28;20529;-75
2021/09/10 06:21:21;;;;;;;8.05;3.63;;;;;;;18.84;57.84;99749.59;5036252;28;20487;-75
2021/09/10 06:23:46;;;;;;;6.20;3.70;;;;;;;19.10;57.71;99783.19;5034479;28;20032;-75
2021/09/10 06:26:11;;;;;;;8.23;4.15;;;;;;;19.11;57.71;99770.63;5053904;28;20033;-75
2021/09/10 06:28:37;;;;;;;4.90;4.15;;;;;;;19.21;57.54;99781.59;5053492;28;20033;-75
2021/09/10 06:31:03;;;;;;;5.40;3.92;;;;;;;19.54;57.70;99830.16;5054509;28;20047;-75
2021/09/10 06:33:28;;;;;;;6.03;3.85;;;;;;;19.25;57.53;99785.44;5069465;28;20016;-75
2021/09/10 06:35:54;;;;;;;8.48;4.57;;;;;;;19.61;57.65;99838.09;5057798;28;20029;-76
2021/09/10 06:38:19;;;;;;;10.32;8.10;;;;;;;19.48;57.55;99817.66;5061590;28;20086;-76
2021/09/10 06:40:45;;;;;;;9.93;6.40;;;;;;;19.45;57.37;99806.59;5056201;28;20024;-75
2021/09/10 06:43:10;;;;;;;6.60;5.15;;;;;;;19.46;57.83;99816.25;5062031;28;20028;-75
2021/09/10 06:45:36;;;;;;;7.88;6.00;;;;;;;19.68;57.70;99847.66;5067172;28;20097;-75
2021/09/10 06:48:01;;;;;;;9.07;4.82;;;;;;;19.74;57.54;99851.28;5038424;28;20198;-75
2021/09/10 06:50:27;;;;;;;8.93;6.70;;;;;;;19.78;57.56;99847.09;5031437;28;20025;-75
2021/09/10 06:52:52;;;;;;;7.13;5.22;;;;;;;19.71;57.23;99832.19;5032263;28;20034;-75
2021/09/10 06:55:17;;;;;;;7.18;5.88;;;;;;;19.62;57.28;99805.72;5039133;28;20567;-74
2021/09/10 06:57:43;;;;;;;5.90;4.20;;;;;;;20.02;57.10;99852.50;5037131;28;20096;-75
2021/09/10 07:00:09;;;;;;;7.65;5.15;;;;;;;20.10;56.91;99853.00;5037900;28;20436;-76
2021/09/10 07:02:34;;;;;;;6.38;4.00;;;;;;;20.17;56.79;99850.19;5041353;28;20103;-75
2021/09/10 07:05:00;;;;;;;7.43;4.82;;;;;;;19.99;56.46;99810.88;5041356;28;20021;-76
2021/09/10 07:07:25;;;;;;;7.60;4.70;;;;;;;20.14;56.58;99821.19;5048141;28;20099;-76
2021/09/10 07:09:51;;;;;;;5.55;4.35;;;;;;;20.38;56.34;99846.94;5048907;28;20040;-75
2021/09/10 07:12:18;;;;;;;6.65;4.70;;;;;;;20.50;56.42;99855.81;5034101;28;20089;-75
2021/09/10 07:14:43;;;;;;;12.07;6.75;;;;;;;20.24;56.11;99805.31;5035409;28;20430;-76
2021/09/10 07:17:09;;;;;;;6.82;4.50;;;;;;;20.21;56.13;99785.16;5035020;28;20034;-75
2021/09/10 07:19:35;;;;;;;8.52;4.88;;;;;;;20.73;55.96;99870.22;5041802;28;20079;-75
2021/09/10 07:22:00;;;;;;;8.65;5.18;;;;;;;20.69;55.98;99864.53;5050892;28;20557;-75
2021/09/10 07:24:25;;;;;;;6.97;5.30;;;;;;;20.46;56.03;99827.00;5047394;28;20103;-74
2021/09/10 07:26:52;;;;;;;6.80;5.38;;;;;;;20.80;55.95;99870.91;5045333;28;20029;-75
2021/09/10 07:29:22;;;;;;;9.20;4.90;;;;;;;20.88;55.17;99870.59;5042949;28;20055;-76
2021/09/10 07:31:49;;;;;;;8.43;5.63;;;;;;;20.69;55.13;99816.22;5043452;28;20032;-75
2021/09/10 07:34:14;;;;;;;5.57;4.22;;;;;;;21.01;54.63;99848.03;5032529;28;20035;-76
2021/09/10 07:36:40;;;;;;;14.65;7.40;;;;;;;21.31;54.20;99863.94;5039052;28;20021;-75
2021/09/10 07:39:05;;;;;;;7.13;3.85;;;;;;;21.17;53.49;99829.28;5044494;28;20207;-76
2021/09/10 07:41:31;;;;;;;7.57;3.42;;;;;;;21.19;52.84;99820.97;5030922;28;20035;-76
2021/09/10 07:43:57;;;;;;;4.72;3.35;;;;;;;21.48;52.78;99860.22;5042826;28;20024;-76
2021/09/10 07:46:23;;;;;;;11.13;4.18;;;;;;;21.56;52.80;99862.53;5047963;28;20056;-75
2021/09/10 07:48:48;;;;;;;7.25;4.10;;;;;;;21.42;52.65;99820.91;5044386;28;20553;-76
2021/09/10 07:51:13;;;;;;;11.85;3.88;;;;;;;21.80;52.38;99857.84;5037270;28;20087;-76
2021/09/10 07:53:39;;;;;;;7.10;3.80;;;;;;;21.47;51.89;99788.75;5052658;28;20074;-74
2021/09/10 07:56:04;;;;;;;7.45;3.97;;;;;;;21.65;51.81;99814.59;5032513;28;20026;-75
2021/09/10 07:58:30;;;;;;;7.18;4.85;;;;;;;21.73;51.69;99824.94;5033247;28;20052;-76
2021/09/10 08:00:55;;;;;;;7.57;3.88;;;;;;;22.07;51.45;99863.41;5038900;28;20468;-76
2021/09/10 08:03:20;;;;;;;8.18;3.90;;;;;;;21.98;51.25;99837.97;5039751;28;20060;-75
2021/09/10 08:05:46;;;;;;;8.10;3.55;;;;;;;22.02;50.92;99822.97;5030345;28;20057;-76
2021/09/10 08:08:11;;;;;;;6.50;3.20;;;;;;;22.32;50.45;99854.94;5043691;28;20230;-80
2021/09/10 08:10:37;;;;;;;6.00;4.00;;;;;;;22.12;50.31;99798.94;5033040;28;20029;-80
2021/09/10 08:13:02;;;;;;;8.70;5.40;;;;;;;22.22;49.99;99803.66;5029788;28;20601;-80
2021/09/10 08:15:28;;;;;;;6.03;4.07;;;;;;;22.46;49.89;99836.56;5035760;28;20053;-81
2021/09/10 08:17:53;;;;;;;7.57;4.43;;;;;;;22.36;49.57;99801.44;5033328;28;20033;-82
2021/09/10 08:20:19;;;;;;;7.90;3.20;;;;;;;22.79;49.43;99846.41;5029354;28;20033;-80
2021/09/10 08:22:46;;;;;;;4.93;3.38;;;;;;;22.49;49.03;99795.69;5034273;28;20105;-81
2021/09/10 08:25:13;;;;;;;7.15;3.83;;;;;;;22.87;48.56;99837.91;5032091;28;20029;-82
2021/09/10 08:27:38;;;;;;;71.07;8.45;;;;;;;22.82;48.42;99816.31;5041368;28;20083;-80
2021/09/10 08:30:06;;;;;;;30.10;8.15;;;;;;;22.49;48.33;99768.78;5032352;28;20021;-82
2021/09/10 08:32:32;;;;;;;6.97;3.65;;;;;;;22.77;48.28;99825.13;5034253;28;20104;-81
2021/09/10 08:34:57;;;;;;;7.35;4.72;;;;;;;22.68;48.40;99832.00;5051452;28;20520;-82
2021/09/10 08:37:23;;;;;;;9.50;5.78;;;;;;;22.31;48.06;99785.25;5056057;28;20033;-81
2021/09/10 08:39:48;;;;;;;5.85;3.78;;;;;;;22.46;48.20;99797.03;5038757;28;20107;-80
2021/09/10 08:42:14;;;;;;;6.47;3.65;;;;;;;22.67;48.13;99818.81;5044128;28;20042;-81
2021/09/10 08:44:42;;;;;;;6.53;3.40;;;;;;;22.87;47.86;99807.50;5036903;28;20040;-81
2021/09/10 08:47:10;;;;;;;6.78;5.40;;;;;;;22.90;47.18;99777.38;5042715;28;20028;-80
2021/09/10 08:49:36;;;;;;;7.60;3.20;;;;;;;23.31;46.29;99800.16;5047263;28;20029;-81
2021/09/10 08:52:02;;;;;;;7.00;3.33;;;;;;;23.42;46.10;99807.28;5041141;28;20512;-80
2021/09/10 08:54:28;;;;;;;6.78;3.72;;;;;;;23.69;45.58;99818.06;5032648;28;20033;-80
2021/09/10 08:56:54;;;;;;;5.70;3.33;;;;;;;23.84;45.11;99825.47;5035854;28;20028;-80
2021/09/10 08:59:21;;;;;;;6.70;3.33;;;;;;;23.85;44.69;99805.53;5045575;28;20083;-80
2021/09/10 09:01:51;;;;;;;7.10;3.30;;;;;;;24.08;43.29;99813.25;5038493;28;20124;-80
2021/09/10 09:04:17;;;;;;;5.32;2.47;;;;;;;23.84;43.38;99780.44;5035351;28;20032;-81
2021/09/10 09:06:45;;;;;;;8.77;2.83;;;;;;;24.26;42.74;99812.00;5041011;28;20048;-81
2021/09/10 09:09:11;;;;;;;4.90;2.95;;;;;;;24.40;42.32;99813.19;5041083;28;20128;-81
2021/09/10 09:11:36;;;;;;;5.47;2.80;;;;;;;24.11;41.12;99741.78;5041590;28;20060;-80
2021/09/10 09:14:05;;;;;;;5.85;4.18;;;;;;;23.82;41.07;99742.16;5034564;28;20056;-80
2021/09/10 09:16:31;;;;;;;8.02;5.03;;;;;;;23.87;41.01;99731.41;5051183;28;20016;-80
2021/09/10 09:19:01;;;;;;;10.45;6.45;;;;;;;24.55;40.82;99801.69;5044514;28;20029;-81
2021/09/10 09:21:32;;;;;;;15.23;6.70;;;;;;;24.63;40.05;99809.28;5039364;28;20032;-82
2021/09/10 09:24:16;;;;;;;8.32;3.83;;;;;;;24.87;39.83;99804.22;5041613;28;20057;-73
2021/09/10 09:26:42;;;;;;;8.13;3.78;;;;;;;24.90;39.05;99765.88;5036561;28;20026;-76
2021/09/10 09:29:11;;;;;;;5.85;2.90;;;;;;;24.96;38.55;99760.22;5039629;28;20116;-75
2021/09/10 09:31:38;;;;;;;6.72;3.15;;;;;;;25.42;38.31;99791.97;5042542;28;20099;-76
2021/09/10 09:34:04;;;;;;;6.07;4.30;;;;;;;25.31;37.62;99731.69;5043548;28;20485;-76
2021/09/10 09:36:30;;;;;;;5.70;2.70;;;;;;;25.70;37.13;99767.13;5046688;28;20074;-77
2021/09/10 09:38:56;;;;;;;8.40;3.13;;;;;;;25.93;36.78;99788.19;5036433;28;20033;-75
2021/09/10 09:41:23;;;;;;;7.25;3.92;;;;;;;26.05;36.36;99768.16;5034238;28;20037;-75
2021/09/10 09:44:02;;;;;;;8.00;5.93;;;;;;;26.26;36.30;99773.25;5034420;28;20037;-75
2021/09/10 09:46:30;;;;;;;9.18;4.40;;;;;;;26.04;35.38;99702.41;5029965;28;20634;-76
2021/09/10 09:49:10;;;;;;;10.35;5.65;;;;;;;26.80;34.62;99764.41;5038905;28;20028;-74
2021/09/10 09:51:35;;;;;;;5.90;3.15;;;;;;;27.03;34.64;99768.38;5037689;28;20086;-74
2021/09/10 09:54:01;;;;;;;6.75;2.95;;;;;;;26.96;33.89;99764.31;5049150;28;20135;-76
2021/09/10 09:56:28;;;;;;;5.55;2.70;;;;;;;26.99;34.13;99761.06;5043533;28;20121;-76
2021/09/10 09:58:54;;;;;;;5.47;2.50;;;;;;;26.72;33.82;99764.16;5048765;28;20024;-75
2021/09/10 10:01:20;;;;;;;383.38;50.88;;;;;;;26.19;34.43;99705.06;5040723;28;20041;-75
2021/09/10 10:03:45;;;;;;;10.80;4.40;;;;;;;26.72;33.96;99769.56;5035603;28;20032;-75
2021/09/10 10:06:25;;;;;;;10.23;7.00;;;;;;;26.92;33.97;99762.16;5043552;28;20417;-76
2021/09/10 10:09:07;;;;;;;7.78;5.32;;;;;;;27.25;33.67;99765.22;5033251;28;20025;-75
2021/09/10 10:11:43;;;;;;;17.95;4.35;;;;;;;27.50;32.87;99758.81;5040405;28;20134;-75
2021/09/10 10:14:12;;;;;;;11.15;3.78;;;;;;;27.56;33.01;99762.31;5052327;28;20502;-75
2021/09/10 10:16:40;;;;;;;7.00;3.20;;;;;;;27.50;32.25;99707.28;5046488;28;20060;-74
2021/09/10 10:19:27;;;;;;;26.73;5.55;;;;;;;27.63;32.32;99727.53;5039555;28;20034;-74
2021/09/10 10:21:55;;;;;;;5.82;4.47;;;;;;;27.66;32.49;99744.06;5040396;28;20501;-75
2021/09/10 10:24:46;;;;;;;5.75;3.40;;;;;;;27.84;31.53;99756.09;5039225;28;20053;-75
2021/09/10 10:27:40;;;;;;;6.28;4.40;;;;;;;27.96;31.73;99747.56;5047144;28;20142;-75
2021/09/10 10:30:26;;;;;;;7.78;3.67;;;;;;;28.26;31.58;99750.00;5030622;28;20041;-73
2021/09/10 10:32:53;;;;;;;8.88;3.13;;;;;;;28.25;30.71;99723.94;5044856;28;20033;-74
2021/09/10 10:35:30;;;;;;;20.00;5.28;;;;;;;28.76;29.41;99734.13;5032858;28;20409;-75
2021/09/10 10:38:01;;;;;;;7.35;3.22;;;;;;;29.19;30.34;99745.78;5037852;28;20033;-76
2021/09/10 10:40:35;;;;;;;;;;;;;;;29.36;29.05;99742.50;5036812;28;20036;-74
2021/09/10 10:43:03;;;;;;;11.48;3.03;;;;;;;29.54;29.46;99744.41;5040374;28;20381;-76
2021/09/10 10:45:49;;;;;;;12.48;3.75;;;;;;;29.84;28.00;99753.97;5046566;28;20029;-74
2021/09/10 10:48:29;;;;;;;3.60;2.03;;;;;;;29.63;28.74;99741.81;5035334;28;20037;-74
2021/09/10 10:50:59;;;;;;;3.65;2.35;;;;;;;29.21;28.58;99701.97;5045505;28;20033;-73
2021/09/10 10:53:24;;;;;;;2.55;2.35;;;;;;;28.95;29.02;99743.13;5036841;28;20022;-76
2021/09/10 10:55:50;;;;;;;5.65;2.53;;;;;;;28.27;29.90;99735.31;5035906;28;20040;-75
2021/09/10 10:58:25;;;;;;;5.45;2.75;;;;;;;27.46;30.46;99689.94;5046176;28;20035;-76
2021/09/10 11:00:59;;;;;;;6.38;2.80;;;;;;;27.54;30.84;99711.06;5030999;28;20029;-75
2021/09/10 11:03:24;;;;;;;3.58;2.47;;;;;;;28.06;30.01;99729.25;5034904;28;20035;-76
2021/09/10 11:05:51;;;;;;;8.32;4.60;;;;;;;28.51;29.82;99724.41;5036985;28;20106;-75
2021/09/10 11:08:41;;;;;;;8.48;6.07;;;;;;;28.59;28.93;99683.03;5036254;28;20025;-76
2021/09/10 11:11:06;;;;;;;5.00;3.60;;;;;;;29.07;28.07;99719.03;5034676;28;20029;-73
2021/09/10 11:13:32;;;;;;;75.72;9.88;;;;;;;28.80;27.85;99678.09;5044840;28;20038;-74
2021/09/10 11:15:58;;;;;;;12.98;5.53;;;;;;;28.99;27.55;99664.53;5039445;28;20040;-75
2021/09/10 11:18:25;;;;;;;15.40;3.67;;;;;;;29.56;26.88;99723.16;5038510;28;20018;-73
2021/09/10 11:20:56;;;;;;;3.65;2.55;;;;;;;29.62;26.97;99694.75;5038309;28;20118;-75
2021/09/10 11:23:25;;;;;;;6.80;2.35;;;;;;;29.90;26.67;99701.06;5037387;28;20030;-80
2021/09/10 11:25:53;;;;;;;6.32;2.67;;;;;;;30.06;26.09;99704.31;5043202;28;20048;-80
2021/09/10 11:28:20;;;;;;;5.30;2.83;;;;;;;29.97;25.88;99676.16;5045901;28;20032;-80
2021/09/10 11:30:48;;;;;;;6.95;2.40;;;;;;;30.23;25.74;99700.97;5034056;28;20021;-81